sensor_id;sensor_type;location;lat;lon;timestamp;P1;durP1;ratioP1;P2;durP2;ratioP2
75542;SDS011;64129;53.508;10.476;2023-03-01T00:02:12;5.40;;;3.67;;
75542;SDS011;64129;53.508;10.476;2023-03-01T00:04:38;5.40;;;3.45;;
75542;SDS011;64129;53.508;10.476;2023-03-01T00:07:05;5.38;;;3.90;;
75542;SDS011;64129;53.508;10.476;2023-03-01T00:09:31;6.28;;;3.83;;
75542;SDS011;64129;53.508;10.476;2023-03-01T00:11:58;8.18;;;4.18;;
75542;SDS011;64129;53.508;10.476;2023-03-01T00:14:25;11.07;;;4.75;;
75542;SDS011;64129;53.508;10.476;2023-03-01T00:16:51;7.93;;;5.10;;
75542;SDS011;64129;53.508;10.476;2023-03-01T00:19:18;5.65;;;3.85;;
75542;SDS011;64129;53.508;10.476;2023-03-01T00:21:46;6.32;;;3.30;;
75542;SDS011;64129;53.508;10.476;2023-03-01T00:24:12;8.02;;;3.83;;
75542;SDS011;64129;53.508;10.476;2023-03-01T00:26:39;6.18;;;4.03;;
75542;SDS011;64129;53.508;10.476;2023-03-01T00:29:05;5.55;;;3.25;;
75542;SDS011;64129;53.508;10.476;2023-03-01T00:31:33;5.03;;;2.72;;
75542;SDS011;64129;53.508;10.476;2023-03-01T00:34:02;6.10;;;4.05;;
75542;SDS011;64129;53.508;10.476;2023-03-01T00:36:31;5.80;;;4.10;;
75542;SDS011;64129;53.508;10.476;2023-03-01T00:39:01;6.55;;;3.85;;
75542;SDS011;64129;53.508;10.476;2023-03-01T00:46:24;5.25;;;3.42;;
75542;SDS011;64129;53.508;10.476;2023-03-01T00:48:53;4.22;;;3.05;;
75542;SDS011;64129;53.508;10.476;2023-03-01T00:51:22;4.85;;;3.17;;
75542;SDS011;64129;53.508;10.476;2023-03-01T00:53:50;4.95;;;3.42;;
75542;SDS011;64129;53.508;10.476;2023-03-01T00:56:18;5.07;;;3.17;;
75542;SDS011;64129;53.508;10.476;2023-03-01T00:58:45;7.38;;;3.95;;
75542;SDS011;64129;53.508;10.476;2023-03-01T01:01:14;6.80;;;3.55;;
75542;SDS011;64129;53.508;10.476;2023-03-01T01:06:18;5.30;;;3.53;;
75542;SDS011;64129;53.508;10.476;2023-03-01T01:08:46;5.75;;;3.28;;
75542;SDS011;64129;53.508;10.476;2023-03-01T01:11:14;8.70;;;3.72;;
75542;SDS011;64129;53.508;10.476;2023-03-01T01:13:41;5.75;;;3.58;;
75542;SDS011;64129;53.508;10.476;2023-03-01T01:16:09;10.45;;;5.13;;
75542;SDS011;64129;53.508;10.476;2023-03-01T01:18:36;10.35;;;5.78;;
75542;SDS011;64129;53.508;10.476;2023-03-01T01:21:04;9.23;;;5.53;;
75542;SDS011;64129;53.508;10.476;2023-03-01T01:23:32;10.60;;;4.78;;
75542;SDS011;64129;53.508;10.476;2023-03-01T01:26:05;5.45;;;3.83;;
75542;SDS011;64129;53.508;10.476;2023-03-01T01:28:34;5.72;;;3.80;;
75542;SDS011;64129;53.508;10.476;2023-03-01T01:31:01;6.35;;;3.90;;
75542;SDS011;64129;53.508;10.476;2023-03-01T01:33:28;6.40;;;3.28;;
75542;SDS011;64129;53.508;10.476;2023-03-01T01:35:55;7.82;;;4.47;;
75542;SDS011;64129;53.508;10.476;2023-03-01T01:38:21;6.95;;;4.57;;
75542;SDS011;64129;53.508;10.476;2023-03-01T01:40:49;5.88;;;4.07;;
75542;SDS011;64129;53.508;10.476;2023-03-01T01:43:18;7.00;;;4.50;;
75542;SDS011;64129;53.508;10.476;2023-03-01T01:45:47;7.32;;;5.10;;
75542;SDS011;64129;53.508;10.476;2023-03-01T01:48:16;7.57;;;4.40;;
75542;SDS011;64129;53.508;10.476;2023-03-01T01:50:51;6.90;;;4.55;;
75542;SDS011;64129;53.508;10.476;2023-03-01T01:53:23;7.15;;;4.03;;
75542;SDS011;64129;53.508;10.476;2023-03-01T01:55:52;5.00;;;3.53;;
75542;SDS011;64129;53.508;10.476;2023-03-01T01:58:24;6.05;;;3.83;;
75542;SDS011;64129;53.508;10.476;2023-03-01T02:00:53;6.75;;;4.07;;
75542;SDS011;64129;53.508;10.476;2023-03-01T02:03:23;7.60;;;4.05;;
75542;SDS011;64129;53.508;10.476;2023-03-01T02:05:57;6.55;;;4.35;;
75542;SDS011;64129;53.508;10.476;2023-03-01T02:08:30;8.90;;;4.63;;
75542;SDS011;64129;53.508;10.476;2023-03-01T02:10:59;10.52;;;4.60;;
75542;SDS011;64129;53.508;10.476;2023-03-01T02:13:27;7.93;;;4.93;;
75542;SDS011;64129;53.508;10.476;2023-03-01T02:15:54;8.70;;;4.75;;
75542;SDS011;64129;53.508;10.476;2023-03-01T02:18:21;9.32;;;5.05;;
75542;SDS011;64129;53.508;10.476;2023-03-01T02:21:08;7.72;;;4.95;;
75542;SDS011;64129;53.508;10.476;2023-03-01T02:23:58;8.23;;;4.78;;
75542;SDS011;64129;53.508;10.476;2023-03-01T02:26:36;7.50;;;4.75;;
75542;SDS011;64129;53.508;10.476;2023-03-01T02:29:08;11.00;;;5.35;;
75542;SDS011;64129;53.508;10.476;2023-03-01T02:31:35;9.85;;;5.15;;
75542;SDS011;64129;53.508;10.476;2023-03-01T02:34:08;9.07;;;5.13;;
75542;SDS011;64129;53.508;10.476;2023-03-01T02:36:39;8.25;;;5.18;;
75542;SDS011;64129;53.508;10.476;2023-03-01T02:39:10;5.72;;;4.22;;
75542;SDS011;64129;53.508;10.476;2023-03-01T02:41:44;8.98;;;5.00;;
75542;SDS011;64129;53.508;10.476;2023-03-01T02:44:14;7.20;;;4.75;;
75542;SDS011;64129;53.508;10.476;2023-03-01T02:46:41;6.68;;;4.50;;
75542;SDS011;64129;53.508;10.476;2023-03-01T02:51:48;6.43;;;3.80;;
75542;SDS011;64129;53.508;10.476;2023-03-01T02:54:39;7.32;;;4.22;;
75542;SDS011;64129;53.508;10.476;2023-03-01T02:57:10;6.32;;;4.03;;
75542;SDS011;64129;53.508;10.476;2023-03-01T02:59:38;5.03;;;3.60;;
75542;SDS011;64129;53.508;10.476;2023-03-01T03:02:08;6.07;;;3.63;;
75542;SDS011;64129;53.508;10.476;2023-03-01T03:05:10;4.00;;;3.42;;
75542;SDS011;64129;53.508;10.476;2023-03-01T03:07:39;6.22;;;3.85;;
75542;SDS011;64129;53.508;10.476;2023-03-01T03:10:13;7.35;;;4.22;;
75542;SDS011;64129;53.508;10.476;2023-03-01T03:13:03;4.18;;;3.67;;
75542;SDS011;64129;53.508;10.476;2023-03-01T03:15:37;5.93;;;3.28;;
75542;SDS011;64129;53.508;10.476;2023-03-01T03:18:06;5.30;;;3.97;;
75542;SDS011;64129;53.508;10.476;2023-03-01T03:20:35;4.72;;;3.25;;
75542;SDS011;64129;53.508;10.476;2023-03-01T03:23:02;5.22;;;3.45;;
75542;SDS011;64129;53.508;10.476;2023-03-01T03:25:29;5.90;;;3.60;;
75542;SDS011;64129;53.508;10.476;2023-03-01T03:27:56;4.43;;;3.50;;
75542;SDS011;64129;53.508;10.476;2023-03-01T03:30:25;6.07;;;3.63;;
75542;SDS011;64129;53.508;10.476;2023-03-01T03:32:54;9.00;;;5.10;;
75542;SDS011;64129;53.508;10.476;2023-03-01T03:35:26;6.40;;;3.70;;
75542;SDS011;64129;53.508;10.476;2023-03-01T03:37:56;7.55;;;4.60;;
75542;SDS011;64129;53.508;10.476;2023-03-01T03:40:35;7.43;;;4.32;;
75542;SDS011;64129;53.508;10.476;2023-03-01T03:43:04;6.10;;;4.40;;
75542;SDS011;64129;53.508;10.476;2023-03-01T03:45:33;6.18;;;4.28;;
75542;SDS011;64129;53.508;10.476;2023-03-01T03:48:01;8.85;;;4.82;;
75542;SDS011;64129;53.508;10.476;2023-03-01T03:52:56;8.13;;;4.55;;
75542;SDS011;64129;53.508;10.476;2023-03-01T03:55:22;8.15;;;4.85;;
75542;SDS011;64129;53.508;10.476;2023-03-01T03:57:49;8.18;;;5.45;;
75542;SDS011;64129;53.508;10.476;2023-03-01T04:00:18;7.38;;;4.72;;
75542;SDS011;64129;53.508;10.476;2023-03-01T04:02:46;8.90;;;4.97;;
75542;SDS011;64129;53.508;10.476;2023-03-01T04:05:14;7.72;;;5.65;;
75542;SDS011;64129;53.508;10.476;2023-03-01T04:07:43;6.50;;;5.47;;
75542;SDS011;64129;53.508;10.476;2023-03-01T04:10:12;6.78;;;4.78;;
75542;SDS011;64129;53.508;10.476;2023-03-01T04:12:40;8.73;;;6.03;;
75542;SDS011;64129;53.508;10.476;2023-03-01T04:15:09;7.00;;;4.97;;
75542;SDS011;64129;53.508;10.476;2023-03-01T04:17:40;8.30;;;5.22;;
75542;SDS011;64129;53.508;10.476;2023-03-01T04:20:12;7.03;;;5.20;;
75542;SDS011;64129;53.508;10.476;2023-03-01T04:22:44;8.35;;;4.65;;
75542;SDS011;64129;53.508;10.476;2023-03-01T04:25:13;7.13;;;4.80;;
75542;SDS011;64129;53.508;10.476;2023-03-01T04:27:40;6.20;;;5.20;;
75542;SDS011;64129;53.508;10.476;2023-03-01T04:30:07;7.68;;;5.88;;
75542;SDS011;64129;53.508;10.476;2023-03-01T04:32:34;9.02;;;5.53;;
75542;SDS011;64129;53.508;10.476;2023-03-01T04:35:01;7.13;;;5.10;;
75542;SDS011;64129;53.508;10.476;2023-03-01T04:37:27;6.57;;;5.18;;
75542;SDS011;64129;53.508;10.476;2023-03-01T04:39:54;8.20;;;5.65;;
75542;SDS011;64129;53.508;10.476;2023-03-01T04:42:20;8.48;;;6.00;;
75542;SDS011;64129;53.508;10.476;2023-03-01T04:44:47;7.68;;;5.63;;
75542;SDS011;64129;53.508;10.476;2023-03-01T04:47:13;8.60;;;5.55;;
75542;SDS011;64129;53.508;10.476;2023-03-01T04:49:40;8.77;;;6.28;;
75542;SDS011;64129;53.508;10.476;2023-03-01T04:52:06;7.45;;;5.90;;
75542;SDS011;64129;53.508;10.476;2023-03-01T04:54:34;8.80;;;5.57;;
75542;SDS011;64129;53.508;10.476;2023-03-01T04:57:01;7.32;;;5.63;;
75542;SDS011;64129;53.508;10.476;2023-03-01T04:59:29;6.53;;;5.82;;
75542;SDS011;64129;53.508;10.476;2023-03-01T05:01:55;14.30;;;6.45;;
75542;SDS011;64129;53.508;10.476;2023-03-01T05:04:23;7.75;;;5.88;;
75542;SDS011;64129;53.508;10.476;2023-03-01T05:06:50;10.90;;;6.70;;
75542;SDS011;64129;53.508;10.476;2023-03-01T05:09:16;7.88;;;5.18;;
75542;SDS011;64129;53.508;10.476;2023-03-01T05:11:43;13.10;;;6.47;;
75542;SDS011;64129;53.508;10.476;2023-03-01T05:14:09;8.85;;;6.63;;
75542;SDS011;64129;53.508;10.476;2023-03-01T05:16:36;7.63;;;6.18;;
75542;SDS011;64129;53.508;10.476;2023-03-01T05:19:03;11.27;;;5.72;;
75542;SDS011;64129;53.508;10.476;2023-03-01T05:21:44;8.90;;;6.05;;
75542;SDS011;64129;53.508;10.476;2023-03-01T05:24:30;8.45;;;5.60;;
75542;SDS011;64129;53.508;10.476;2023-03-01T05:26:59;8.02;;;5.53;;
75542;SDS011;64129;53.508;10.476;2023-03-01T05:29:27;8.88;;;5.28;;
75542;SDS011;64129;53.508;10.476;2023-03-01T05:31:56;9.43;;;6.03;;
75542;SDS011;64129;53.508;10.476;2023-03-01T05:34:24;10.95;;;5.88;;
75542;SDS011;64129;53.508;10.476;2023-03-01T05:36:52;6.75;;;5.50;;
75542;SDS011;64129;53.508;10.476;2023-03-01T05:39:20;6.80;;;5.50;;
75542;SDS011;64129;53.508;10.476;2023-03-01T05:41:51;7.85;;;5.75;;
75542;SDS011;64129;53.508;10.476;2023-03-01T05:44:23;9.43;;;5.93;;
75542;SDS011;64129;53.508;10.476;2023-03-01T05:46:50;8.48;;;5.57;;
75542;SDS011;64129;53.508;10.476;2023-03-01T05:49:17;7.13;;;5.22;;
75542;SDS011;64129;53.508;10.476;2023-03-01T05:51:47;9.57;;;5.68;;
75542;SDS011;64129;53.508;10.476;2023-03-01T05:54:15;7.88;;;5.35;;
75542;SDS011;64129;53.508;10.476;2023-03-01T05:56:43;7.53;;;5.30;;
75542;SDS011;64129;53.508;10.476;2023-03-01T05:59:10;9.93;;;6.38;;
75542;SDS011;64129;53.508;10.476;2023-03-01T06:01:37;8.10;;;5.50;;
75542;SDS011;64129;53.508;10.476;2023-03-01T06:04:04;11.48;;;6.03;;
75542;SDS011;64129;53.508;10.476;2023-03-01T06:06:34;7.10;;;5.60;;
75542;SDS011;64129;53.508;10.476;2023-03-01T06:09:04;7.30;;;5.00;;
75542;SDS011;64129;53.508;10.476;2023-03-01T06:11:33;6.32;;;5.05;;
75542;SDS011;64129;53.508;10.476;2023-03-01T06:14:01;9.07;;;4.88;;
75542;SDS011;64129;53.508;10.476;2023-03-01T06:16:28;8.30;;;5.10;;
75542;SDS011;64129;53.508;10.476;2023-03-01T06:18:55;8.05;;;5.30;;
75542;SDS011;64129;53.508;10.476;2023-03-01T06:21:21;7.35;;;4.63;;
75542;SDS011;64129;53.508;10.476;2023-03-01T06:23:48;7.82;;;4.72;;
75542;SDS011;64129;53.508;10.476;2023-03-01T06:26:14;7.85;;;5.15;;
75542;SDS011;64129;53.508;10.476;2023-03-01T06:28:41;8.55;;;5.65;;
75542;SDS011;64129;53.508;10.476;2023-03-01T06:31:07;8.48;;;5.03;;
75542;SDS011;64129;53.508;10.476;2023-03-01T06:33:35;5.97;;;4.25;;
75542;SDS011;64129;53.508;10.476;2023-03-01T06:36:03;9.63;;;5.03;;
75542;SDS011;64129;53.508;10.476;2023-03-01T06:38:30;7.13;;;4.80;;
75542;SDS011;64129;53.508;10.476;2023-03-01T06:40:56;8.43;;;4.75;;
75542;SDS011;64129;53.508;10.476;2023-03-01T06:43:23;8.38;;;4.75;;
75542;SDS011;64129;53.508;10.476;2023-03-01T06:45:50;8.57;;;5.05;;
75542;SDS011;64129;53.508;10.476;2023-03-01T06:48:16;7.70;;;4.65;;
75542;SDS011;64129;53.508;10.476;2023-03-01T06:50:43;8.10;;;5.40;;
75542;SDS011;64129;53.508;10.476;2023-03-01T06:53:10;6.13;;;4.72;;
75542;SDS011;64129;53.508;10.476;2023-03-01T06:55:36;8.95;;;5.25;;
75542;SDS011;64129;53.508;10.476;2023-03-01T06:58:03;9.73;;;5.25;;
75542;SDS011;64129;53.508;10.476;2023-03-01T07:00:30;8.68;;;5.15;;
75542;SDS011;64129;53.508;10.476;2023-03-01T07:03:00;10.05;;;6.00;;
75542;SDS011;64129;53.508;10.476;2023-03-01T07:05:29;8.63;;;5.32;;
75542;SDS011;64129;53.508;10.476;2023-03-01T07:07:56;7.53;;;5.20;;
75542;SDS011;64129;53.508;10.476;2023-03-01T07:10:22;8.75;;;5.95;;
75542;SDS011;64129;53.508;10.476;2023-03-01T07:12:49;10.80;;;6.28;;
75542;SDS011;64129;53.508;10.476;2023-03-01T07:15:16;11.27;;;7.70;;
75542;SDS011;64129;53.508;10.476;2023-03-01T07:17:42;10.98;;;8.65;;
75542;SDS011;64129;53.508;10.476;2023-03-01T07:20:10;11.35;;;8.40;;
75542;SDS011;64129;53.508;10.476;2023-03-01T07:22:39;6.55;;;5.18;;
75542;SDS011;64129;53.508;10.476;2023-03-01T07:25:07;11.60;;;7.40;;
75542;SDS011;64129;53.508;10.476;2023-03-01T07:27:34;10.23;;;7.07;;
75542;SDS011;64129;53.508;10.476;2023-03-01T07:30:00;10.73;;;7.65;;
75542;SDS011;64129;53.508;10.476;2023-03-01T07:32:27;12.65;;;6.97;;
75542;SDS011;64129;53.508;10.476;2023-03-01T07:34:53;9.18;;;6.10;;
75542;SDS011;64129;53.508;10.476;2023-03-01T07:37:20;11.13;;;5.97;;
75542;SDS011;64129;53.508;10.476;2023-03-01T07:39:46;10.25;;;6.20;;
75542;SDS011;64129;53.508;10.476;2023-03-01T07:42:13;11.13;;;6.05;;
75542;SDS011;64129;53.508;10.476;2023-03-01T07:44:39;8.48;;;6.18;;
75542;SDS011;64129;53.508;10.476;2023-03-01T07:47:06;11.93;;;7.53;;
75542;SDS011;64129;53.508;10.476;2023-03-01T07:49:32;12.48;;;6.95;;
75542;SDS011;64129;53.508;10.476;2023-03-01T07:51:59;10.68;;;6.60;;
75542;SDS011;64129;53.508;10.476;2023-03-01T07:54:25;10.82;;;6.78;;
75542;SDS011;64129;53.508;10.476;2023-03-01T07:56:52;12.23;;;7.45;;
75542;SDS011;64129;53.508;10.476;2023-03-01T07:59:21;10.68;;;7.15;;
75542;SDS011;64129;53.508;10.476;2023-03-01T08:01:48;10.88;;;7.47;;
75542;SDS011;64129;53.508;10.476;2023-03-01T08:04:15;11.02;;;6.90;;
75542;SDS011;64129;53.508;10.476;2023-03-01T08:06:41;11.27;;;6.53;;
75542;SDS011;64129;53.508;10.476;2023-03-01T08:09:08;16.75;;;8.20;;
75542;SDS011;64129;53.508;10.476;2023-03-01T08:11:35;14.23;;;7.50;;
75542;SDS011;64129;53.508;10.476;2023-03-01T08:14:02;13.35;;;7.60;;
75542;SDS011;64129;53.508;10.476;2023-03-01T08:16:28;12.80;;;7.22;;
75542;SDS011;64129;53.508;10.476;2023-03-01T08:18:55;10.77;;;6.72;;
75542;SDS011;64129;53.508;10.476;2023-03-01T08:21:25;10.95;;;6.88;;
75542;SDS011;64129;53.508;10.476;2023-03-01T08:23:52;11.90;;;7.45;;
75542;SDS011;64129;53.508;10.476;2023-03-01T08:26:19;11.52;;;8.10;;
75542;SDS011;64129;53.508;10.476;2023-03-01T08:28:47;12.70;;;8.10;;
75542;SDS011;64129;53.508;10.476;2023-03-01T08:31:16;12.85;;;7.68;;
75542;SDS011;64129;53.508;10.476;2023-03-01T08:33:45;14.05;;;6.63;;
75542;SDS011;64129;53.508;10.476;2023-03-01T08:36:17;11.13;;;7.50;;
75542;SDS011;64129;53.508;10.476;2023-03-01T08:38:44;11.77;;;7.43;;
75542;SDS011;64129;53.508;10.476;2023-03-01T08:41:12;14.50;;;7.45;;
75542;SDS011;64129;53.508;10.476;2023-03-01T08:43:39;14.82;;;8.35;;
75542;SDS011;64129;53.508;10.476;2023-03-01T08:46:05;12.77;;;8.45;;
75542;SDS011;64129;53.508;10.476;2023-03-01T08:48:32;13.43;;;8.68;;
75542;SDS011;64129;53.508;10.476;2023-03-01T08:51:08;13.93;;;8.18;;
75542;SDS011;64129;53.508;10.476;2023-03-01T08:53:36;14.48;;;9.23;;
75542;SDS011;64129;53.508;10.476;2023-03-01T08:56:03;14.07;;;6.60;;
75542;SDS011;64129;53.508;10.476;2023-03-01T08:58:30;11.70;;;7.82;;
75542;SDS011;64129;53.508;10.476;2023-03-01T09:00:56;12.38;;;7.70;;
75542;SDS011;64129;53.508;10.476;2023-03-01T09:03:23;9.45;;;5.93;;
75542;SDS011;64129;53.508;10.476;2023-03-01T09:05:51;12.60;;;6.65;;
75542;SDS011;64129;53.508;10.476;2023-03-01T09:08:18;15.52;;;8.52;;
75542;SDS011;64129;53.508;10.476;2023-03-01T09:10:45;13.23;;;7.18;;
75542;SDS011;64129;53.508;10.476;2023-03-01T09:13:12;9.60;;;7.43;;
75542;SDS011;64129;53.508;10.476;2023-03-01T09:15:38;12.23;;;7.10;;
75542;SDS011;64129;53.508;10.476;2023-03-01T09:18:05;10.80;;;7.15;;
75542;SDS011;64129;53.508;10.476;2023-03-01T09:20:32;10.88;;;7.00;;
75542;SDS011;64129;53.508;10.476;2023-03-01T09:22:59;13.48;;;6.53;;
75542;SDS011;64129;53.508;10.476;2023-03-01T09:25:25;12.73;;;7.35;;
75542;SDS011;64129;53.508;10.476;2023-03-01T09:27:52;11.65;;;6.80;;
75542;SDS011;64129;53.508;10.476;2023-03-01T09:30:20;12.85;;;7.35;;
75542;SDS011;64129;53.508;10.476;2023-03-01T09:32:47;12.15;;;7.22;;
75542;SDS011;64129;53.508;10.476;2023-03-01T09:35:13;10.02;;;6.28;;
75542;SDS011;64129;53.508;10.476;2023-03-01T09:37:40;12.73;;;7.50;;
75542;SDS011;64129;53.508;10.476;2023-03-01T09:40:15;13.00;;;7.93;;
75542;SDS011;64129;53.508;10.476;2023-03-01T09:42:54;12.68;;;6.97;;
75542;SDS011;64129;53.508;10.476;2023-03-01T09:45:35;10.80;;;7.40;;
75542;SDS011;64129;53.508;10.476;2023-03-01T09:48:09;13.43;;;7.35;;
75542;SDS011;64129;53.508;10.476;2023-03-01T09:50:42;14.55;;;7.95;;
75542;SDS011;64129;53.508;10.476;2023-03-01T09:53:13;11.88;;;7.22;;
75542;SDS011;64129;53.508;10.476;2023-03-01T10:03:41;11.68;;;6.75;;
75542;SDS011;64129;53.508;10.476;2023-03-01T10:06:15;13.73;;;8.00;;
75542;SDS011;64129;53.508;10.476;2023-03-01T10:09:07;10.93;;;7.35;;
75542;SDS011;64129;53.508;10.476;2023-03-01T10:11:39;13.95;;;7.78;;
75542;SDS011;64129;53.508;10.476;2023-03-01T10:17:12;15.75;;;7.70;;
75542;SDS011;64129;53.508;10.476;2023-03-01T10:24:48;11.20;;;7.88;;
75542;SDS011;64129;53.508;10.476;2023-03-01T10:27:17;12.85;;;8.02;;
75542;SDS011;64129;53.508;10.476;2023-03-01T10:30:09;10.65;;;7.80;;
75542;SDS011;64129;53.508;10.476;2023-03-01T10:32:43;10.45;;;7.38;;
75542;SDS011;64129;53.508;10.476;2023-03-01T10:37:58;12.40;;;8.18;;
75542;SDS011;64129;53.508;10.476;2023-03-01T10:40:36;14.02;;;7.50;;
75542;SDS011;64129;53.508;10.476;2023-03-01T10:43:17;11.73;;;6.70;;
75542;SDS011;64129;53.508;10.476;2023-03-01T10:45:44;12.82;;;7.50;;
75542;SDS011;64129;53.508;10.476;2023-03-01T10:50:50;10.35;;;6.65;;
75542;SDS011;64129;53.508;10.476;2023-03-01T10:53:38;11.02;;;6.90;;
75542;SDS011;64129;53.508;10.476;2023-03-01T10:56:09;10.20;;;6.20;;
75542;SDS011;64129;53.508;10.476;2023-03-01T10:58:40;12.30;;;6.85;;
75542;SDS011;64129;53.508;10.476;2023-03-01T11:01:31;12.27;;;7.55;;
75542;SDS011;64129;53.508;10.476;2023-03-01T11:06:34;8.73;;;7.03;;
75542;SDS011;64129;53.508;10.476;2023-03-01T11:11:40;10.80;;;7.60;;
75542;SDS011;64129;53.508;10.476;2023-03-01T11:14:17;10.45;;;7.57;;
75542;SDS011;64129;53.508;10.476;2023-03-01T11:16:59;9.80;;;6.70;;
75542;SDS011;64129;53.508;10.476;2023-03-01T11:19:30;10.45;;;6.90;;
75542;SDS011;64129;53.508;10.476;2023-03-01T11:22:05;10.68;;;6.80;;
75542;SDS011;64129;53.508;10.476;2023-03-01T11:24:39;10.35;;;7.18;;
75542;SDS011;64129;53.508;10.476;2023-03-01T11:27:14;9.90;;;6.82;;
75542;SDS011;64129;53.508;10.476;2023-03-01T11:29:45;7.72;;;6.40;;
75542;SDS011;64129;53.508;10.476;2023-03-01T11:32:17;8.68;;;6.97;;
75542;SDS011;64129;53.508;10.476;2023-03-01T11:34:48;9.38;;;6.95;;
75542;SDS011;64129;53.508;10.476;2023-03-01T11:37:31;9.98;;;6.80;;
75542;SDS011;64129;53.508;10.476;2023-03-01T11:42:48;9.35;;;6.28;;
75542;SDS011;64129;53.508;10.476;2023-03-01T11:45:21;7.90;;;5.75;;
75542;SDS011;64129;53.508;10.476;2023-03-01T11:51:18;7.70;;;5.82;;
75542;SDS011;64129;53.508;10.476;2023-03-01T11:53:59;8.77;;;5.55;;
75542;SDS011;64129;53.508;10.476;2023-03-01T11:56:48;8.00;;;6.00;;
75542;SDS011;64129;53.508;10.476;2023-03-01T11:59:36;9.15;;;5.85;;
75542;SDS011;64129;53.508;10.476;2023-03-01T12:08:22;6.15;;;5.28;;
75542;SDS011;64129;53.508;10.476;2023-03-01T12:11:07;7.82;;;5.13;;
75542;SDS011;64129;53.508;10.476;2023-03-01T12:18:41;6.28;;;4.45;;
75542;SDS011;64129;53.508;10.476;2023-03-01T12:26:44;5.82;;;4.43;;
75542;SDS011;64129;53.508;10.476;2023-03-01T12:29:25;5.95;;;4.00;;
75542;SDS011;64129;53.508;10.476;2023-03-01T12:37:56;7.07;;;5.00;;
75542;SDS011;64129;53.508;10.476;2023-03-01T12:40:44;5.13;;;3.95;;
75542;SDS011;64129;53.508;10.476;2023-03-01T12:43:22;8.18;;;5.65;;
75542;SDS011;64129;53.508;10.476;2023-03-01T12:49:07;6.40;;;4.97;;
75542;SDS011;64129;53.508;10.476;2023-03-01T12:51:42;8.45;;;5.80;;
75542;SDS011;64129;53.508;10.476;2023-03-01T12:54:22;8.10;;;6.55;;
75542;SDS011;64129;53.508;10.476;2023-03-01T12:56:55;7.53;;;5.65;;
75542;SDS011;64129;53.508;10.476;2023-03-01T12:59:39;7.90;;;5.15;;
75542;SDS011;64129;53.508;10.476;2023-03-01T13:02:24;8.23;;;5.78;;
75542;SDS011;64129;53.508;10.476;2023-03-01T13:05:19;7.65;;;5.30;;
75542;SDS011;64129;53.508;10.476;2023-03-01T13:11:00;6.68;;;5.38;;
75542;SDS011;64129;53.508;10.476;2023-03-01T13:13:29;6.72;;;5.20;;
75542;SDS011;64129;53.508;10.476;2023-03-01T13:15:57;7.78;;;5.28;;
75542;SDS011;64129;53.508;10.476;2023-03-01T13:18:43;7.00;;;5.05;;
75542;SDS011;64129;53.508;10.476;2023-03-01T13:21:10;6.57;;;4.50;;
75542;SDS011;64129;53.508;10.476;2023-03-01T13:23:37;5.38;;;3.80;;
75542;SDS011;64129;53.508;10.476;2023-03-01T13:33:50;7.68;;;4.38;;
75542;SDS011;64129;53.508;10.476;2023-03-01T13:44:13;5.40;;;3.55;;
75542;SDS011;64129;53.508;10.476;2023-03-01T13:46:56;4.22;;;3.00;;
75542;SDS011;64129;53.508;10.476;2023-03-01T13:49:34;4.90;;;3.05;;
75542;SDS011;64129;53.508;10.476;2023-03-01T13:52:55;4.43;;;3.15;;
75542;SDS011;64129;53.508;10.476;2023-03-01T13:57:40;3.72;;;2.78;;
75542;SDS011;64129;53.508;10.476;2023-03-01T14:03:01;3.75;;;2.40;;
75542;SDS011;64129;53.508;10.476;2023-03-01T14:05:34;4.65;;;2.78;;
75542;SDS011;64129;53.508;10.476;2023-03-01T14:08:14;3.25;;;2.42;;
75542;SDS011;64129;53.508;10.476;2023-03-01T14:19:17;2.97;;;2.63;;
75542;SDS011;64129;53.508;10.476;2023-03-01T14:24:52;4.90;;;3.45;;
75542;SDS011;64129;53.508;10.476;2023-03-01T14:27:28;4.63;;;2.92;;
75542;SDS011;64129;53.508;10.476;2023-03-01T14:30:02;3.70;;;2.95;;
75542;SDS011;64129;53.508;10.476;2023-03-01T14:32:36;3.60;;;2.58;;
75542;SDS011;64129;53.508;10.476;2023-03-01T14:35:02;3.92;;;2.70;;
75542;SDS011;64129;53.508;10.476;2023-03-01T14:37:31;3.60;;;2.38;;
75542;SDS011;64129;53.508;10.476;2023-03-01T14:40:00;3.05;;;2.70;;
75542;SDS011;64129;53.508;10.476;2023-03-01T14:42:33;3.17;;;2.88;;
75542;SDS011;64129;53.508;10.476;2023-03-01T14:45:02;5.18;;;3.63;;
75542;SDS011;64129;53.508;10.476;2023-03-01T14:47:32;6.53;;;4.53;;
75542;SDS011;64129;53.508;10.476;2023-03-01T14:50:02;6.95;;;4.03;;
75542;SDS011;64129;53.508;10.476;2023-03-01T14:52:37;5.07;;;3.85;;
75542;SDS011;64129;53.508;10.476;2023-03-01T14:55:09;5.07;;;3.90;;
75542;SDS011;64129;53.508;10.476;2023-03-01T14:57:43;4.47;;;3.50;;
75542;SDS011;64129;53.508;10.476;2023-03-01T15:00:16;4.30;;;3.30;;
75542;SDS011;64129;53.508;10.476;2023-03-01T15:02:46;6.93;;;4.38;;
75542;SDS011;64129;53.508;10.476;2023-03-01T15:05:25;4.38;;;3.10;;
75542;SDS011;64129;53.508;10.476;2023-03-01T15:07:54;6.38;;;2.85;;
75542;SDS011;64129;53.508;10.476;2023-03-01T15:10:24;4.25;;;2.63;;
75542;SDS011;64129;53.508;10.476;2023-03-01T15:12:53;2.60;;;2.20;;
75542;SDS011;64129;53.508;10.476;2023-03-01T15:15:33;3.40;;;2.20;;
75542;SDS011;64129;53.508;10.476;2023-03-01T15:18:11;4.03;;;2.30;;
75542;SDS011;64129;53.508;10.476;2023-03-01T15:20:42;3.22;;;2.05;;
75542;SDS011;64129;53.508;10.476;2023-03-01T15:23:19;3.40;;;2.10;;
75542;SDS011;64129;53.508;10.476;2023-03-01T15:25:49;3.72;;;1.95;;
75542;SDS011;64129;53.508;10.476;2023-03-01T15:28:24;3.35;;;2.15;;
75542;SDS011;64129;53.508;10.476;2023-03-01T15:30:55;2.92;;;2.08;;
75542;SDS011;64129;53.508;10.476;2023-03-01T15:35:54;2.60;;;1.70;;
75542;SDS011;64129;53.508;10.476;2023-03-01T15:40:51;2.97;;;1.98;;
75542;SDS011;64129;53.508;10.476;2023-03-01T15:46:03;3.25;;;1.98;;
75542;SDS011;64129;53.508;10.476;2023-03-01T15:48:30;2.22;;;1.75;;
75542;SDS011;64129;53.508;10.476;2023-03-01T15:50:57;3.15;;;2.10;;
75542;SDS011;64129;53.508;10.476;2023-03-01T15:53:25;4.45;;;1.73;;
75542;SDS011;64129;53.508;10.476;2023-03-01T15:55:54;2.88;;;2.00;;
75542;SDS011;64129;53.508;10.476;2023-03-01T15:58:21;3.42;;;2.10;;
75542;SDS011;64129;53.508;10.476;2023-03-01T16:00:49;3.17;;;2.38;;
75542;SDS011;64129;53.508;10.476;2023-03-01T16:03:27;4.13;;;2.10;;
75542;SDS011;64129;53.508;10.476;2023-03-01T16:05:54;3.75;;;2.10;;
75542;SDS011;64129;53.508;10.476;2023-03-01T16:08:20;3.35;;;2.10;;
75542;SDS011;64129;53.508;10.476;2023-03-01T16:10:47;4.78;;;2.10;;
75542;SDS011;64129;53.508;10.476;2023-03-01T16:13:16;3.42;;;2.22;;
75542;SDS011;64129;53.508;10.476;2023-03-01T16:15:43;3.60;;;2.15;;
75542;SDS011;64129;53.508;10.476;2023-03-01T16:18:10;2.65;;;1.90;;
75542;SDS011;64129;53.508;10.476;2023-03-01T16:20:37;1.70;;;1.40;;
75542;SDS011;64129;53.508;10.476;2023-03-01T16:23:06;2.28;;;1.55;;
75542;SDS011;64129;53.508;10.476;2023-03-01T16:25:33;3.92;;;1.70;;
75542;SDS011;64129;53.508;10.476;2023-03-01T16:28:02;2.15;;;1.90;;
75542;SDS011;64129;53.508;10.476;2023-03-01T16:30:35;2.60;;;1.95;;
75542;SDS011;64129;53.508;10.476;2023-03-01T16:33:02;2.60;;;1.80;;
75542;SDS011;64129;53.508;10.476;2023-03-01T16:35:44;2.97;;;2.03;;
75542;SDS011;64129;53.508;10.476;2023-03-01T16:38:10;2.90;;;1.73;;
75542;SDS011;64129;53.508;10.476;2023-03-01T16:40:37;3.17;;;2.60;;
75542;SDS011;64129;53.508;10.476;2023-03-01T16:43:04;4.65;;;3.45;;
75542;SDS011;64129;53.508;10.476;2023-03-01T16:45:32;5.20;;;3.65;;